sensor_id;sensor_type;location;lat;lon;timestamp;temperature;humidity
77039;DHT22;65970;50.476;4.840;2023-06-10T00:02:54;23.10;12.60
77039;DHT22;65970;50.476;4.840;2023-06-10T00:07:55;23.10;13.60
77039;DHT22;65970;50.476;4.840;2023-06-10T00:12:56;23.00;13.40
77039;DHT22;65970;50.476;4.840;2023-06-10T00:17:56;23.00;14.00
77039;DHT22;65970;50.476;4.840;2023-06-10T00:23:00;22.90;12.70
77039;DHT22;65970;50.476;4.840;2023-06-10T00:28:01;22.90;12.90
77039;DHT22;65970;50.476;4.840;2023-06-10T00:33:01;22.90;14.20
77039;DHT22;65970;50.476;4.840;2023-06-10T00:38:02;22.90;13.10
77039;DHT22;65970;50.476;4.840;2023-06-10T00:43:02;22.80;13.00
77039;DHT22;65970;50.476;4.840;2023-06-10T00:48:02;22.80;13.20
77039;DHT22;65970;50.476;4.840;2023-06-10T00:53:03;22.70;14.00
77039;DHT22;65970;50.476;4.840;2023-06-10T00:58:04;22.70;13.40
77039;DHT22;65970;50.476;4.840;2023-06-10T01:03:04;22.70;13.00
77039;DHT22;65970;50.476;4.840;2023-06-10T01:13:24;22.60;15.00
77039;DHT22;65970;50.476;4.840;2023-06-10T01:18:31;22.60;15.50
77039;DHT22;65970;50.476;4.840;2023-06-10T01:23:31;22.50;15.80
77039;DHT22;65970;50.476;4.840;2023-06-10T01:33:33;22.40;14.80
77039;DHT22;65970;50.476;4.840;2023-06-10T01:38:39;22.40;14.90
77039;DHT22;65970;50.476;4.840;2023-06-10T01:43:40;22.40;15.80
77039;DHT22;65970;50.476;4.840;2023-06-10T01:48:42;22.30;16.00
77039;DHT22;65970;50.476;4.840;2023-06-10T01:53:43;22.30;15.60
77039;DHT22;65970;50.476;4.840;2023-06-10T01:58:43;22.30;14.90
77039;DHT22;65970;50.476;4.840;2023-06-10T02:03:44;22.20;15.30
77039;DHT22;65970;50.476;4.840;2023-06-10T02:08:44;22.20;17.20
77039;DHT22;65970;50.476;4.840;2023-06-10T02:13:44;22.10;18.10
77039;DHT22;65970;50.476;4.840;2023-06-10T02:18:45;22.10;16.20
77039;DHT22;65970;50.476;4.840;2023-06-10T02:23:45;22.00;19.10
77039;DHT22;65970;50.476;4.840;2023-06-10T02:28:46;22.00;19.30
77039;DHT22;65970;50.476;4.840;2023-06-10T02:33:46;22.00;17.90
77039;DHT22;65970;50.476;4.840;2023-06-10T02:38:47;21.90;18.50
77039;DHT22;65970;50.476;4.840;2023-06-10T02:43:47;21.90;19.30
77039;DHT22;65970;50.476;4.840;2023-06-10T02:48:48;21.90;18.70
77039;DHT22;65970;50.476;4.840;2023-06-10T02:53:48;21.90;18.20
77039;DHT22;65970;50.476;4.840;2023-06-10T02:58:48;21.80;18.00
77039;DHT22;65970;50.476;4.840;2023-06-10T03:03:49;21.70;19.60
77039;DHT22;65970;50.476;4.840;2023-06-10T03:08:49;21.70;19.30
77039;DHT22;65970;50.476;4.840;2023-06-10T03:13:50;21.60;19.40
77039;DHT22;65970;50.476;4.840;2023-06-10T03:18:50;21.50;19.70
77039;DHT22;65970;50.476;4.840;2023-06-10T03:23:51;21.50;20.50
77039;DHT22;65970;50.476;4.840;2023-06-10T03:28:51;21.50;19.50
77039;DHT22;65970;50.476;4.840;2023-06-10T03:33:52;21.40;21.10
77039;DHT22;65970;50.476;4.840;2023-06-10T03:38:52;21.30;20.00
77039;DHT22;65970;50.476;4.840;2023-06-10T03:43:52;21.30;20.90
77039;DHT22;65970;50.476;4.840;2023-06-10T03:48:53;21.30;21.40
77039;DHT22;65970;50.476;4.840;2023-06-10T03:53:53;21.20;22.00
77039;DHT22;65970;50.476;4.840;2023-06-10T03:58:54;21.10;22.80
77039;DHT22;65970;50.476;4.840;2023-06-10T04:03:54;21.00;23.20
77039;DHT22;65970;50.476;4.840;2023-06-10T04:08:55;21.00;23.10
77039;DHT22;65970;50.476;4.840;2023-06-10T04:13:55;21.00;23.90
77039;DHT22;65970;50.476;4.840;2023-06-10T04:18:56;20.90;24.30
77039;DHT22;65970;50.476;4.840;2023-06-10T04:23:56;20.90;23.80
77039;DHT22;65970;50.476;4.840;2023-06-10T04:28:57;20.90;24.10
77039;DHT22;65970;50.476;4.840;2023-06-10T04:33:57;20.90;24.50
77039;DHT22;65970;50.476;4.840;2023-06-10T04:38:58;20.90;24.40
77039;DHT22;65970;50.476;4.840;2023-06-10T04:43:58;20.80;24.80
77039;DHT22;65970;50.476;4.840;2023-06-10T04:48:58;20.80;25.10
77039;DHT22;65970;50.476;4.840;2023-06-10T04:53:59;20.80;25.20
77039;DHT22;65970;50.476;4.840;2023-06-10T04:59:00;20.70;25.50
77039;DHT22;65970;50.476;4.840;2023-06-10T05:04:00;20.70;25.50
77039;DHT22;65970;50.476;4.840;2023-06-10T05:09:00;20.90;25.30
77039;DHT22;65970;50.476;4.840;2023-06-10T05:14:01;20.90;24.90
77039;DHT22;65970;50.476;4.840;2023-06-10T05:19:01;20.90;25.10
77039;DHT22;65970;50.476;4.840;2023-06-10T05:24:02;21.00;25.20
77039;DHT22;65970;50.476;4.840;2023-06-10T05:29:03;20.90;25.50
77039;DHT22;65970;50.476;4.840;2023-06-10T05:34:03;20.90;25.60
77039;DHT22;65970;50.476;4.840;2023-06-10T05:39:04;20.90;25.00
77039;DHT22;65970;50.476;4.840;2023-06-10T05:44:04;20.90;24.90
77039;DHT22;65970;50.476;4.840;2023-06-10T05:49:04;20.90;25.70
77039;DHT22;65970;50.476;4.840;2023-06-10T05:54:05;21.10;25.60
77039;DHT22;65970;50.476;4.840;2023-06-10T05:59:05;21.20;25.10
77039;DHT22;65970;50.476;4.840;2023-06-10T06:04:06;21.20;24.90
77039;DHT22;65970;50.476;4.840;2023-06-10T06:09:06;21.30;24.30
77039;DHT22;65970;50.476;4.840;2023-06-10T06:14:06;21.40;24.70
77039;DHT22;65970;50.476;4.840;2023-06-10T06:19:07;21.50;24.80
77039;DHT22;65970;50.476;4.840;2023-06-10T06:24:08;21.60;24.10
77039;DHT22;65970;50.476;4.840;2023-06-10T06:29:08;21.70;23.50
77039;DHT22;65970;50.476;4.840;2023-06-10T06:34:08;21.80;23.20
77039;DHT22;65970;50.476;4.840;2023-06-10T06:39:09;21.90;22.70
77039;DHT22;65970;50.476;4.840;2023-06-10T06:44:09;22.00;22.70
77039;DHT22;65970;50.476;4.840;2023-06-10T06:49:10;22.20;22.60
77039;DHT22;65970;50.476;4.840;2023-06-10T06:54:10;22.30;21.50
77039;DHT22;65970;50.476;4.840;2023-06-10T06:59:11;22.50;22.20
77039;DHT22;65970;50.476;4.840;2023-06-10T07:04:11;22.60;20.50
77039;DHT22;65970;50.476;4.840;2023-06-10T07:09:11;22.80;20.00
77039;DHT22;65970;50.476;4.840;2023-06-10T07:14:12;22.90;19.70
77039;DHT22;65970;50.476;4.840;2023-06-10T07:19:12;23.10;18.90
77039;DHT22;65970;50.476;4.840;2023-06-10T07:34:35;23.60;19.40
77039;DHT22;65970;50.476;4.840;2023-06-10T07:44:46;23.90;17.30
77039;DHT22;65970;50.476;4.840;2023-06-10T07:49:47;24.00;17.20
77039;DHT22;65970;50.476;4.840;2023-06-10T07:54:47;24.20;16.30
77039;DHT22;65970;50.476;4.840;2023-06-10T07:59:47;24.40;15.70
77039;DHT22;65970;50.476;4.840;2023-06-10T08:04:48;24.60;14.50
77039;DHT22;65970;50.476;4.840;2023-06-10T08:09:48;24.70;14.50
77039;DHT22;65970;50.476;4.840;2023-06-10T08:14:49;24.90;13.50
77039;DHT22;65970;50.476;4.840;2023-06-10T08:19:49;25.10;14.10
77039;DHT22;65970;50.476;4.840;2023-06-10T08:24:52;25.30;12.50
77039;DHT22;65970;50.476;4.840;2023-06-10T08:29:52;25.40;12.60
77039;DHT22;65970;50.476;4.840;2023-06-10T08:34:53;25.60;12.40
77039;DHT22;65970;50.476;4.840;2023-06-10T08:39:53;25.80;10.90
77039;DHT22;65970;50.476;4.840;2023-06-10T08:44:54;25.90;9.70
77039;DHT22;65970;50.476;4.840;2023-06-10T08:49:55;26.10;9.90
77039;DHT22;65970;50.476;4.840;2023-06-10T08:55:14;26.30;7.80
77039;DHT22;65970;50.476;4.840;2023-06-10T09:00:15;26.40;8.20
77039;DHT22;65970;50.476;4.840;2023-06-10T09:05:16;26.60;8.10
77039;DHT22;65970;50.476;4.840;2023-06-10T09:10:16;26.70;7.50
77039;DHT22;65970;50.476;4.840;2023-06-10T09:15:17;26.90;6.70
77039;DHT22;65970;50.476;4.840;2023-06-10T09:20:17;27.00;7.30
77039;DHT22;65970;50.476;4.840;2023-06-10T09:25:18;27.10;6.00
77039;DHT22;65970;50.476;4.840;2023-06-10T09:30:34;27.20;7.30
77039;DHT22;65970;50.476;4.840;2023-06-10T09:35:35;27.30;5.90
77039;DHT22;65970;50.476;4.840;2023-06-10T09:40:40;27.40;6.10
77039;DHT22;65970;50.476;4.840;2023-06-10T09:45:48;27.60;5.00
77039;DHT22;65970;50.476;4.840;2023-06-10T09:50:49;27.80;5.00
77039;DHT22;65970;50.476;4.840;2023-06-10T09:55:50;27.90;5.30
77039;DHT22;65970;50.476;4.840;2023-06-10T10:00:52;27.90;5.00
77039;DHT22;65970;50.476;4.840;2023-06-10T10:05:59;28.00;5.00
77039;DHT22;65970;50.476;4.840;2023-06-10T10:10:59;28.20;5.00
77039;DHT22;65970;50.476;4.840;2023-06-10T10:16:04;28.40;5.00
77039;DHT22;65970;50.476;4.840;2023-06-10T10:21:07;28.40;5.00
77039;DHT22;65970;50.476;4.840;2023-06-10T10:26:10;28.60;5.00
77039;DHT22;65970;50.476;4.840;2023-06-10T10:31:12;28.70;5.00
77039;DHT22;65970;50.476;4.840;2023-06-10T10:36:15;28.90;5.00
77039;DHT22;65970;50.476;4.840;2023-06-10T10:41:16;29.20;5.00
77039;DHT22;65970;50.476;4.840;2023-06-10T10:46:17;29.50;5.00
77039;DHT22;65970;50.476;4.840;2023-06-10T10:51:17;29.80;5.00
77039;DHT22;65970;50.476;4.840;2023-06-10T10:56:17;30.30;5.00
77039;DHT22;65970;50.476;4.840;2023-06-10T11:01:18;30.60;5.00
77039;DHT22;65970;50.476;4.840;2023-06-10T11:06:18;30.70;5.00
77039;DHT22;65970;50.476;4.840;2023-06-10T11:11:25;30.70;5.00
77039;DHT22;65970;50.476;4.840;2023-06-10T11:16:27;30.80;5.00
77039;DHT22;65970;50.476;4.840;2023-06-10T11:21:29;30.80;5.00
77039;DHT22;65970;50.476;4.840;2023-06-10T11:26:30;31.00;5.00
77039;DHT22;65970;50.476;4.840;2023-06-10T11:36:31;31.00;5.00
77039;DHT22;65970;50.476;4.840;2023-06-10T11:41:33;31.40;5.00
77039;DHT22;65970;50.476;4.840;2023-06-10T11:46:33;31.60;5.00
77039;DHT22;65970;50.476;4.840;2023-06-10T11:51:37;31.40;5.00
77039;DHT22;65970;50.476;4.840;2023-06-10T11:56:38;31.10;5.00
77039;DHT22;65970;50.476;4.840;2023-06-10T12:01:42;30.80;5.00
77039;DHT22;65970;50.476;4.840;2023-06-10T12:06:47;30.70;5.00
77039;DHT22;65970;50.476;4.840;2023-06-10T12:11:54;30.50;5.00
77039;DHT22;65970;50.476;4.840;2023-06-10T12:16:56;30.50;5.00
77039;DHT22;65970;50.476;4.840;2023-06-10T12:21:56;30.80;5.00
77039;DHT22;65970;50.476;4.840;2023-06-10T12:26:56;31.30;5.00
77039;DHT22;65970;50.476;4.840;2023-06-10T12:31:58;31.50;5.00
77039;DHT22;65970;50.476;4.840;2023-06-10T12:37:02;31.50;5.00
77039;DHT22;65970;50.476;4.840;2023-06-10T12:42:03;31.80;5.00
77039;DHT22;65970;50.476;4.840;2023-06-10T12:47:06;31.80;5.00
77039;DHT22;65970;50.476;4.840;2023-06-10T12:52:07;31.50;5.00
77039;DHT22;65970;50.476;4.840;2023-06-10T12:57:07;31.40;5.00
77039;DHT22;65970;50.476;4.840;2023-06-10T13:02:08;31.40;5.00
77039;DHT22;65970;50.476;4.840;2023-06-10T13:07:08;31.50;5.00
77039;DHT22;65970;50.476;4.840;2023-06-10T13:12:09;31.40;5.00
77039;DHT22;65970;50.476;4.840;2023-06-10T13:17:09;31.30;5.00
77039;DHT22;65970;50.476;4.840;2023-06-10T13:22:09;31.00;5.00
77039;DHT22;65970;50.476;4.840;2023-06-10T13:27:10;30.80;5.00
77039;DHT22;65970;50.476;4.840;2023-06-10T13:32:10;30.90;5.00
77039;DHT22;65970;50.476;4.840;2023-06-10T13:37:11;30.90;5.00
77039;DHT22;65970;50.476;4.840;2023-06-10T13:42:11;30.90;5.00
77039;DHT22;65970;50.476;4.840;2023-06-10T13:47:12;31.10;5.00
77039;DHT22;65970;50.476;4.840;2023-06-10T13:52:12;31.30;5.00
77039;DHT22;65970;50.476;4.840;2023-06-10T13:57:13;31.40;5.00
77039;DHT22;65970;50.476;4.840;2023-06-10T14:02:13;31.30;5.00
77039;DHT22;65970;50.476;4.840;2023-06-10T14:07:13;31.50;5.00
77039;DHT22;65970;50.476;4.840;2023-06-10T14:12:14;31.50;5.00
77039;DHT22;65970;50.476;4.840;2023-06-10T14:17:14;31.60;5.00
77039;DHT22;65970;50.476;4.840;2023-06-10T14:22:15;31.80;5.00
77039;DHT22;65970;50.476;4.840;2023-06-10T14:27:15;31.70;5.00
77039;DHT22;65970;50.476;4.840;2023-06-10T14:32:16;31.70;5.00
77039;DHT22;65970;50.476;4.840;2023-06-10T14:37:16;31.60;5.00
77039;DHT22;65970;50.476;4.840;2023-06-10T14:42:16;31.50;5.00
77039;DHT22;65970;50.476;4.840;2023-06-10T14:47:17;31.40;5.00
77039;DHT22;65970;50.476;4.840;2023-06-10T14:52:17;31.20;5.00
77039;DHT22;65970;50.476;4.840;2023-06-10T14:57:18;31.10;5.00
77039;DHT22;65970;50.476;4.840;2023-06-10T15:02:18;30.90;5.00
77039;DHT22;65970;50.476;4.840;2023-06-10T15:07:18;30.70;5.00
77039;DHT22;65970;50.476;4.840;2023-06-10T15:12:19;30.50;5.00
77039;DHT22;65970;50.476;4.840;2023-06-10T15:17:19;30.50;5.00
77039;DHT22;65970;50.476;4.840;2023-06-10T15:22:20;30.40;5.00
77039;DHT22;65970;50.476;4.840;2023-06-10T15:27:20;30.30;5.00
77039;DHT22;65970;50.476;4.840;2023-06-10T15:32:21;30.20;5.00
77039;DHT22;65970;50.476;4.840;2023-06-10T15:37:21;30.00;5.00
77039;DHT22;65970;50.476;4.840;2023-06-10T15:42:21;29.90;5.00
77039;DHT22;65970;50.476;4.840;2023-06-10T15:47:22;29.80;5.00
77039;DHT22;65970;50.476;4.840;2023-06-10T15:52:22;29.70;5.00
77039;DHT22;65970;50.476;4.840;2023-06-10T15:57:23;29.50;5.00
77039;DHT22;65970;50.476;4.840;2023-06-10T16:02:23;29.40;5.00
77039;DHT22;65970;50.476;4.840;2023-06-10T16:07:24;29.30;5.00
77039;DHT22;65970;50.476;4.840;2023-06-10T16:12:24;29.20;5.00
77039;DHT22;65970;50.476;4.840;2023-06-10T16:17:24;29.20;5.00
77039;DHT22;65970;50.476;4.840;2023-06-10T16:22:25;29.20;5.00
77039;DHT22;65970;50.476;4.840;2023-06-10T16:27:25;29.10;5.00
77039;DHT22;65970;50.476;4.840;2023-06-10T16:32:26;29.00;5.00
77039;DHT22;65970;50.476;4.840;2023-06-10T16:37:26;29.00;5.00
77039;DHT22;65970;50.476;4.840;2023-06-10T16:42:27;28.90;5.00
77039;DHT22;65970;50.476;4.840;2023-06-10T16:47:27;28.90;5.00
77039;DHT22;65970;50.476;4.840;2023-06-10T16:52:28;28.90;5.00
77039;DHT22;65970;50.476;4.840;2023-06-10T16:57:28;28.80;5.00
77039;DHT22;65970;50.476;4.840;2023-06-10T17:02:30;28.80;5.00
77039;DHT22;65970;50.476;4.840;2023-06-10T17:07:30;28.70;5.00
77039;DHT22;65970;50.476;4.840;2023-06-10T17:12:30;28.70;5.00
77039;DHT22;65970;50.476;4.840;2023-06-10T17:17:31;28.70;5.00
77039;DHT22;65970;50.476;4.840;2023-06-10T17:22:31;28.60;5.00
77039;DHT22;65970;50.476;4.840;2023-06-10T17:27:32;28.50;5.00
77039;DHT22;65970;50.476;4.840;2023-06-10T17:32:32;28.40;5.00
77039;DHT22;65970;50.476;4.840;2023-06-10T17:37:33;28.40;5.00
77039;DHT22;65970;50.476;4.840;2023-06-10T17:42:33;28.40;5.00
77039;DHT22;65970;50.476;4.840;2023-06-10T17:47:33;28.30;5.00
77039;DHT22;65970;50.476;4.840;2023-06-10T17:52:34;28.30;5.00
77039;DHT22;65970;50.476;4.840;2023-06-10T17:57:34;28.20;5.00
77039;DHT22;65970;50.476;4.840;2023-06-10T18:02:35;28.10;5.00
77039;DHT22;65970;50.476;4.840;2023-06-10T18:07:35;28.10;5.00
77039;DHT22;65970;50.476;4.840;2023-06-10T18:12:36;28.00;5.00
77039;DHT22;65970;50.476;4.840;2023-06-10T18:17:36;27.90;5.00
77039;DHT22;65970;50.476;4.840;2023-06-10T18:22:37;27.90;5.00
77039;DHT22;65970;50.476;4.840;2023-06-10T18:27:38;27.80;5.00
77039;DHT22;65970;50.476;4.840;2023-06-10T18:32:39;27.80;5.00
77039;DHT22;65970;50.476;4.840;2023-06-10T18:37:39;27.70;5.00
77039;DHT22;65970;50.476;4.840;2023-06-10T18:42:40;27.70;5.00
77039;DHT22;65970;50.476;4.840;2023-06-10T18:47:40;27.60;5.00
77039;DHT22;65970;50.476;4.840;2023-06-10T18:52:41;27.50;5.00
77039;DHT22;65970;50.476;4.840;2023-06-10T18:57:41;27.40;5.00
77039;DHT22;65970;50.476;4.840;2023-06-10T19:02:42;27.40;5.00
77039;DHT22;65970;50.476;4.840;2023-06-10T19:07:42;27.30;5.00
77039;DHT22;65970;50.476;4.840;2023-06-10T19:12:43;27.20;5.00
77039;DHT22;65970;50.476;4.840;2023-06-10T19:17:43;27.10;5.50
77039;DHT22;65970;50.476;4.840;2023-06-10T19:22:43;27.10;5.90
77039;DHT22;65970;50.476;4.840;2023-06-10T19:27:44;27.00;6.40
77039;DHT22;65970;50.476;4.840;2023-06-10T19:32:45;27.00;6.80
77039;DHT22;65970;50.476;4.840;2023-06-10T19:37:45;26.90;6.50
77039;DHT22;65970;50.476;4.840;2023-06-10T19:42:46;26.80;7.00
77039;DHT22;65970;50.476;4.840;2023-06-10T19:47:46;26.70;7.30
77039;DHT22;65970;50.476;4.840;2023-06-10T19:52:47;26.60;7.80
77039;DHT22;65970;50.476;4.840;2023-06-10T19:57:47;26.60;7.70
77039;DHT22;65970;50.476;4.840;2023-06-10T20:02:48;26.50;7.70
77039;DHT22;65970;50.476;4.840;2023-06-10T20:07:48;26.50;8.40
77039;DHT22;65970;50.476;4.840;2023-06-10T20:12:49;26.40;8.20
77039;DHT22;65970;50.476;4.840;2023-06-10T20:17:49;26.30;8.80
77039;DHT22;65970;50.476;4.840;2023-06-10T20:22:49;26.30;9.10
77039;DHT22;65970;50.476;4.840;2023-06-10T20:27:50;26.20;9.70
77039;DHT22;65970;50.476;4.840;2023-06-10T20:32:50;26.10;8.60
77039;DHT22;65970;50.476;4.840;2023-06-10T20:37:51;26.10;9.40
77039;DHT22;65970;50.476;4.840;2023-06-10T20:42:51;26.00;9.50
77039;DHT22;65970;50.476;4.840;2023-06-10T20:47:52;25.90;9.90
77039;DHT22;65970;50.476;4.840;2023-06-10T20:52:52;25.80;10.70
77039;DHT22;65970;50.476;4.840;2023-06-10T20:57:53;25.70;10.50
77039;DHT22;65970;50.476;4.840;2023-06-10T21:02:53;25.70;10.30
77039;DHT22;65970;50.476;4.840;2023-06-10T21:07:54;25.60;10.50
77039;DHT22;65970;50.476;4.840;2023-06-10T21:12:54;25.60;10.70
77039;DHT22;65970;50.476;4.840;2023-06-10T21:17:54;25.50;10.80
77039;DHT22;65970;50.476;4.840;2023-06-10T21:22:55;25.50;10.40
77039;DHT22;65970;50.476;4.840;2023-06-10T21:27:55;25.40;10.30
77039;DHT22;65970;50.476;4.840;2023-06-10T21:32:56;25.30;10.90
77039;DHT22;65970;50.476;4.840;2023-06-10T21:37:56;25.20;10.70
77039;DHT22;65970;50.476;4.840;2023-06-10T21:42:57;25.20;8.70
77039;DHT22;65970;50.476;4.840;2023-06-10T21:47:57;25.10;10.50
77039;DHT22;65970;50.476;4.840;2023-06-10T21:52:57;25.00;11.10
77039;DHT22;65970;50.476;4.840;2023-06-10T21:57:58;25.00;10.40
77039;DHT22;65970;50.476;4.840;2023-06-10T22:02:58;24.80;11.80
77039;DHT22;65970;50.476;4.840;2023-06-10T22:07:59;24.80;9.80
77039;DHT22;65970;50.476;4.840;2023-06-10T22:12:59;24.70;11.70
77039;DHT22;65970;50.476;4.840;2023-06-10T22:18:00;24.80;10.70
77039;DHT22;65970;50.476;4.840;2023-06-10T22:23:00;24.70;10.70
77039;DHT22;65970;50.476;4.840;2023-06-10T22:28:01;24.60;10.30
77039;DHT22;65970;50.476;4.840;2023-06-10T22:33:01;24.60;12.10
77039;DHT22;65970;50.476;4.840;2023-06-10T22:38:02;24.50;12.60
77039;DHT22;65970;50.476;4.840;2023-06-10T22:43:03;24.40;12.20
77039;DHT22;65970;50.476;4.840;2023-06-10T22:48:03;24.40;12.70
77039;DHT22;65970;50.476;4.840;2023-06-10T22:53:04;24.30;12.50
77039;DHT22;65970;50.476;4.840;2023-06-10T22:58:04;24.30;13.60
77039;DHT22;65970;50.476;4.840;2023-06-10T23:03:05;24.20;14.40
77039;DHT22;65970;50.476;4.840;2023-06-10T23:08:05;24.10;14.20
77039;DHT22;65970;50.476;4.840;2023-06-10T23:13:05;24.10;14.60
77039;DHT22;65970;50.476;4.840;2023-06-10T23:18:06;24.00;14.40
77039;DHT22;65970;50.476;4.840;2023-06-10T23:23:06;23.90;16.00
77039;DHT22;65970;50.476;4.840;2023-06-10T23:28:07;23.80;15.50
77039;DHT22;65970;50.476;4.840;2023-06-10T23:33:07;23.70;16.50
77039;DHT22;65970;50.476;4.840;2023-06-10T23:38:08;23.60;16.00
77039;DHT22;65970;50.476;4.840;2023-06-10T23:43:08;23.60;16.60
77039;DHT22;65970;50.476;4.840;2023-06-10T23:48:08;23.50;17.10
77039;DHT22;65970;50.476;4.840;2023-06-10T23:53:09;23.40;17.60
77039;DHT22;65970;50.476;4.840;2023-06-10T23:58:10;23.40;16.80
